Meteo Giornale » Osservazioni meteo Stati Uniti (USA) » Kaneohe
ore: 16:57 - Osservazioni Meteo Kaneohe
Lat. 21° 27' N Lon. 157° 47' W Alt. 5 metri s.l.m.
28 °C
Nuvoloso
Temp. 24 Ore
24 °C
29 °C
Est/Nord-Est
25.9 Km/h
Dew point 22 °C
Umidità 69 %
Visibilità 11 Km
Il sole sorge alle ore 06:14
Il sole tramonta alle ore 18:48
| Data e Ora | Cielo e Fenomeni | T °C | DP °C | Um. % | Pres. hPa | Vis. km | Vento km/h | |
|---|---|---|---|---|---|---|---|---|
| Oggi h: 16:57 | Nuvoloso | 28 | 22 | 69 | 1014 | 11 | E/NE 25.9 | |
| Oggi h: 15:57 | Nuvoloso | 28 | 22 | 69 | 1013 | 11 | E/NE 25.9 | |
| Oggi h: 14:57 | Foschia | 28 | 22 | 69 | 1014 | 10 | E/NE 25.9 | |
| Oggi h: 13:57 | Nuvoloso | 29 | 22 | 66 | 1014 | 11 | NE 24 | |
| Oggi h: 12:57 | Nuvoloso | 29 | 22 | 66 | 1015 | 11 | E/NE 25.9 | |
| Oggi h: 11:57 | Nuvoloso | 28 | 22 | 69 | 1016 | 11 | E/NE 22.2 | |
| Oggi h: 10:57 | Nuvoloso | 28 | 21 | 65 | 1016 | 11 | E/NE 24 | |
| Oggi h: 09:57 | Nuvoloso | 28 | 21 | 65 | 1016 | 11 | E/NE 24 | |
| Oggi h: 08:57 | Nuvoloso | 27 | 21 | 69 | 1016 | 11 | E/NE 22.2 | |
| Oggi h: 07:57 | Nuvoloso | 26 | 21 | 73 | 1016 | 11 | E/NE 22.2 | |
| Oggi h: 06:57 | Nuvoloso | 26 | 21 | 73 | 1015 | 11 | E/NE 14.8 | |
| Oggi h: 06:03 | Nuvoloso | 26 | 21 | 73 | 1015 | 11 | E/NE 16.7 | |
| Oggi h: 05:57 | Poco Nuvoloso | 26 | 20 | 69 | 1015 | 10 | E 20.3 | |
| Oggi h: 04:57 | Nuvoloso | 26 | 20 | 69 | 1015 | 10 | E/NE 16.7 | |
| Oggi h: 03:57 | Coperto | 26 | 21 | 73 | 1014 | 10 | E/NE 22.2 | |
| Oggi h: 02:57 | Coperto | 26 | 21 | 73 | 1015 | 10 | E 24 | |
| Oggi h: 01:57 | Coperto | 25 | 22 | 83 | 1015 | 10 | E 20.3 | |
| Oggi h: 01:42 | Pioggia | 24 | 21 | 83 | 1015 | 13 | E 20.3 | |
| Oggi h: 01:34 | Pioggia Foschia | 24 | 22 | 88 | 1016 | 2 | E 20.3 | |
| Oggi h: 01:17 | Coperto | 26 | 21 | 73 | 1016 | 10 | E 24 | |
| Oggi h: 00:57 | Coperto | 26 | 21 | 73 | 1016 | 10 | E 18.5 | |
| Ieri h: 23:57 | Coperto | 26 | 21 | 73 | 1016 | 10 | E/NE 22.2 | |
| Ieri h: 21:57 | Coperto | 26 | 22 | 78 | 1017 | 10 | E 20.3 | |
| Ieri h: 20:37 | Pioggia | 25 | 22 | 83 | 1016 | 10 | E 18.5 | |
| Ieri h: 20:17 | Molto Nuvoloso | 26 | 22 | 78 | 1016 | 10 | E/NE 22.2 | |



